Addison, Texas
Current Conditions -  °F | °C
As of 2:54 PM on Friday 24 Oct 2014 (Local Time) from KADS Reporting Station
Clear Clear  
Wind Chill: 82°   Ceiling: Unl
Heat Index: 82°   Visibility: 13mi
Dew Point: 57°   Wind: 9mph
Humidity: 42%   Direction: 180°S
Pressure: 30.09"   Gusts: NA
Location:  32.95°N, 96.82°W
Report Text: KADS 241954Z 18008KT 13SM SKC 28/14 A3009
Loading
Personal Weather Stations






























Interactive Weather Map
Tropical Storm Tracking
New forecast layout! Learn more

10-Day Weather Forecast

Advertisements
Track Severe Weather on mobile